4 Oceans' Dream — SPG3364 — position and weather

sailwx.info

Track history (hours):
 
Tides and Currents Weather Stations Pressure Air Temp Water Temp Dewpoint Dewpoint Depression Visibility Wind Speed Wind Dir Waves Ship Positions

4 Oceans' Dream

Last reported at 2017-Oct-04 19:42 UTC. Time now 2017-Nov-21 06:30 UTC.
Position N 28°07' W 015°58'.
Warning: this ship's position is 47 days out of date.

Type: Pleasure craft. MMSI: 261018120.

Date/timePositionNaut miles runAvg speedWind from/ knotsBaromVisibWave heightAir tempDewpointWater temp
2017-Oct-04 19:42N 28°07' W 015°58'2 4.8
2017-Oct-04 19:19N 28°08' W 015°56'2 4.9
2017-Oct-04 18:59N 28°08' W 015°54'16 4.8
2017-Oct-04 15:33N 28°10' W 015°36'0 5.8
2017-Oct-04 15:30N 28°10' W 015°35'3 5.9
2017-Oct-04 15:00N 28°12' W 015°33'3 6.0
2017-Oct-04 14:30N 28°14' W 015°30'3 5.9
2017-Oct-04 14:00N 28°15' W 015°27'3 6.0
2017-Oct-04 13:30N 28°17' W 015°24'3 6.1
2017-Oct-04 13:00N 28°18' W 015°21'3 6.0
2017-Oct-04 12:29N 28°20' W 015°18'2 5.2
2017-Oct-04 12:00N 28°21' W 015°15'3 5.5
2017-Oct-04 11:30N 28°22' W 015°12'3 5.7
2017-Oct-04 11:00N 28°23' W 015°10'3 5.5
2017-Oct-04 10:29N 28°24' W 015°07'3 5.8
2017-Oct-04 09:59N 28°26' W 015°04'3 6.3
2017-Oct-04 09:29N 28°27' W 015°01'3 5.7
2017-Oct-04 08:59N 28°29' W 014°58'3 5.3
2017-Oct-04 08:28N 28°30' W 014°55'  
2017-Sep-26 06:13N 37°06' W 011°01'31 4.6
2017-Sep-25 23:30N 37°30' W 010°36'2 5.0
2017-Sep-25 23:00N 37°32' W 010°35'35 6.0
2017-Sep-25 17:11N 37°58' W 010°05'1 6.9
2017-Sep-25 17:00N 37°59' W 010°04'3 6.7
2017-Sep-25 16:30N 38°01' W 010°01'31 6.2
2017-Sep-25 11:30N 38°25' W 009°35'2 4.2
2017-Sep-25 11:01N 38°26' W 009°33'3 6.3
2017-Sep-25 10:29N 38°29' W 009°30'3 6.3
2017-Sep-25 10:00N 38°31' W 009°28'3 5.4
2017-Sep-25 09:30N 38°33' W 009°25'2 4.7
2017-Sep-25 08:58N 38°35' W 009°23'2 5.1
2017-Sep-25 08:30N 38°37' W 009°21'3 6.0
2017-Sep-25 07:59N 38°39' W 009°19'3 6.0
2017-Sep-25 07:30N 38°41' W 009°16'3 0.3
2017-Sep-24 19:53N 38°42' W 009°12'  
Track history (hours):
 
Tides and Currents Weather Stations Pressure Air Temp Water Temp Dewpoint Dewpoint Depression Visibility Wind Speed Wind Dir Waves Ship Positions

4 Oceans' Dream

Last reported at 2017-Oct-04 19:42 UTC. Time now 2017-Nov-21 06:30 UTC.
Position N 28°07' W 015°58'.
Warning: this ship's position is 47 days out of date.

Type: Pleasure craft. MMSI: 261018120.

Date/timePositionNaut miles runAvg speedWind from/ knotsBaromVisibWave heightAir tempDewpointWater temp
2017-Oct-04 19:42N 28°07' W 015°58'2 4.8
2017-Oct-04 19:19N 28°08' W 015°56'2 4.9
2017-Oct-04 18:59N 28°08' W 015°54'16 4.8
2017-Oct-04 15:33N 28°10' W 015°36'0 5.8
2017-Oct-04 15:30N 28°10' W 015°35'3 5.9
2017-Oct-04 15:00N 28°12' W 015°33'3 6.0
2017-Oct-04 14:30N 28°14' W 015°30'3 5.9
2017-Oct-04 14:00N 28°15' W 015°27'3 6.0
2017-Oct-04 13:30N 28°17' W 015°24'3 6.1
2017-Oct-04 13:00N 28°18' W 015°21'3 6.0
2017-Oct-04 12:29N 28°20' W 015°18'2 5.2
2017-Oct-04 12:00N 28°21' W 015°15'3 5.5
2017-Oct-04 11:30N 28°22' W 015°12'3 5.7
2017-Oct-04 11:00N 28°23' W 015°10'3 5.5
2017-Oct-04 10:29N 28°24' W 015°07'3 5.8
2017-Oct-04 09:59N 28°26' W 015°04'3 6.3
2017-Oct-04 09:29N 28°27' W 015°01'3 5.7
2017-Oct-04 08:59N 28°29' W 014°58'3 5.3
2017-Oct-04 08:28N 28°30' W 014°55'  
2017-Sep-26 06:13N 37°06' W 011°01'31 4.6
2017-Sep-25 23:30N 37°30' W 010°36'2 5.0
2017-Sep-25 23:00N 37°32' W 010°35'35 6.0
2017-Sep-25 17:11N 37°58' W 010°05'1 6.9
2017-Sep-25 17:00N 37°59' W 010°04'3 6.7
2017-Sep-25 16:30N 38°01' W 010°01'31 6.2
2017-Sep-25 11:30N 38°25' W 009°35'2 4.2
2017-Sep-25 11:01N 38°26' W 009°33'3 6.3
2017-Sep-25 10:29N 38°29' W 009°30'3 6.3
2017-Sep-25 10:00N 38°31' W 009°28'3 5.4
2017-Sep-25 09:30N 38°33' W 009°25'2 4.7
2017-Sep-25 08:58N 38°35' W 009°23'2 5.1
2017-Sep-25 08:30N 38°37' W 009°21'3 6.0
2017-Sep-25 07:59N 38°39' W 009°19'3 6.0
2017-Sep-25 07:30N 38°41' W 009°16'3 0.3
2017-Sep-24 19:53N 38°42' W 009°12'  

Dump ship's entire track history